sensor_id;sensor_type;location;lat;lon;timestamp;temperature;humidity
30889;DHT22;51092;50.874;7.024;2022-10-14T00:00:49;14.00;99.90
30889;DHT22;51092;50.874;7.024;2022-10-14T00:01:52;13.90;99.90
30889;DHT22;51092;50.874;7.024;2022-10-14T00:02:53;13.90;99.90
30889;DHT22;51092;50.874;7.024;2022-10-14T00:03:56;13.90;99.90
30889;DHT22;51092;50.874;7.024;2022-10-14T00:04:57;13.90;99.90
30889;DHT22;51092;50.874;7.024;2022-10-14T00:06:04;13.90;99.90
30889;DHT22;51092;50.874;7.024;2022-10-14T00:07:07;13.90;99.90
30889;DHT22;51092;50.874;7.024;2022-10-14T00:08:09;13.90;99.90
30889;DHT22;51092;50.874;7.024;2022-10-14T00:09:11;13.90;99.90
30889;DHT22;51092;50.874;7.024;2022-10-14T00:10:13;13.90;99.90
30889;DHT22;51092;50.874;7.024;2022-10-14T00:11:17;13.80;99.90
30889;DHT22;51092;50.874;7.024;2022-10-14T00:12:18;13.90;99.90
30889;DHT22;51092;50.874;7.024;2022-10-14T00:13:21;13.90;99.90
30889;DHT22;51092;50.874;7.024;2022-10-14T00:14:22;13.90;99.90
30889;DHT22;51092;50.874;7.024;2022-10-14T00:15:25;14.00;99.90
30889;DHT22;51092;50.874;7.024;2022-10-14T00:16:28;14.00;99.90
30889;DHT22;51092;50.874;7.024;2022-10-14T00:17:31;14.00;99.90
30889;DHT22;51092;50.874;7.024;2022-10-14T00:18:33;14.00;99.90
30889;DHT22;51092;50.874;7.024;2022-10-14T00:19:36;14.00;99.90
30889;DHT22;51092;50.874;7.024;2022-10-14T00:20:37;14.00;99.90
30889;DHT22;51092;50.874;7.024;2022-10-14T00:21:43;14.00;99.90
30889;DHT22;51092;50.874;7.024;2022-10-14T00:22:44;14.10;99.90
30889;DHT22;51092;50.874;7.024;2022-10-14T00:24:52;14.10;99.90
30889;DHT22;51092;50.874;7.024;2022-10-14T00:25:55;14.00;99.90
30889;DHT22;51092;50.874;7.024;2022-10-14T00:26:56;14.00;99.90
30889;DHT22;51092;50.874;7.024;2022-10-14T00:27:59;14.00;99.90
30889;DHT22;51092;50.874;7.024;2022-10-14T00:29:06;13.90;99.90
30889;DHT22;51092;50.874;7.024;2022-10-14T00:30:10;13.90;99.90
30889;DHT22;51092;50.874;7.024;2022-10-14T00:31:12;13.90;99.90
30889;DHT22;51092;50.874;7.024;2022-10-14T00:32:14;13.80;99.90
30889;DHT22;51092;50.874;7.024;2022-10-14T00:33:16;13.90;99.90
30889;DHT22;51092;50.874;7.024;2022-10-14T00:34:18;13.90;99.90
30889;DHT22;51092;50.874;7.024;2022-10-14T00:35:20;13.90;99.90
30889;DHT22;51092;50.874;7.024;2022-10-14T00:36:22;13.90;99.90
30889;DHT22;51092;50.874;7.024;2022-10-14T00:37:27;13.90;99.90
30889;DHT22;51092;50.874;7.024;2022-10-14T00:38:29;13.90;99.90
30889;DHT22;51092;50.874;7.024;2022-10-14T00:39:31;13.90;99.90
30889;DHT22;51092;50.874;7.024;2022-10-14T00:40:33;13.90;99.90
30889;DHT22;51092;50.874;7.024;2022-10-14T00:41:36;13.90;99.90
30889;DHT22;51092;50.874;7.024;2022-10-14T00:42:37;13.90;99.90
30889;DHT22;51092;50.874;7.024;2022-10-14T00:43:55;13.90;99.90
30889;DHT22;51092;50.874;7.024;2022-10-14T00:45:00;13.90;99.90
30889;DHT22;51092;50.874;7.024;2022-10-14T00:46:03;13.90;99.90
30889;DHT22;51092;50.874;7.024;2022-10-14T00:47:05;13.90;99.90
30889;DHT22;51092;50.874;7.024;2022-10-14T00:48:08;14.00;99.90
30889;DHT22;51092;50.874;7.024;2022-10-14T00:49:14;14.00;99.90
30889;DHT22;51092;50.874;7.024;2022-10-14T00:50:16;14.00;99.90
30889;DHT22;51092;50.874;7.024;2022-10-14T00:51:19;14.00;99.90
30889;DHT22;51092;50.874;7.024;2022-10-14T00:52:22;14.10;99.90
30889;DHT22;51092;50.874;7.024;2022-10-14T00:53:26;14.00;99.90
30889;DHT22;51092;50.874;7.024;2022-10-14T00:54:30;14.00;99.90
30889;DHT22;51092;50.874;7.024;2022-10-14T00:55:33;14.10;99.90
30889;DHT22;51092;50.874;7.024;2022-10-14T00:56:35;14.10;99.90
30889;DHT22;51092;50.874;7.024;2022-10-14T00:57:38;14.10;99.90
30889;DHT22;51092;50.874;7.024;2022-10-14T00:58:39;14.10;99.90
30889;DHT22;51092;50.874;7.024;2022-10-14T00:59:43;14.20;99.90
30889;DHT22;51092;50.874;7.024;2022-10-14T01:00:44;14.20;99.90
30889;DHT22;51092;50.874;7.024;2022-10-14T01:01:47;14.20;99.90
30889;DHT22;51092;50.874;7.024;2022-10-14T01:02:48;14.20;99.90
30889;DHT22;51092;50.874;7.024;2022-10-14T01:03:51;14.20;99.90
30889;DHT22;51092;50.874;7.024;2022-10-14T01:04:52;14.30;99.90
30889;DHT22;51092;50.874;7.024;2022-10-14T01:06:03;14.30;99.90
30889;DHT22;51092;50.874;7.024;2022-10-14T01:07:14;14.30;99.90
30889;DHT22;51092;50.874;7.024;2022-10-14T01:08:23;14.20;99.90
30889;DHT22;51092;50.874;7.024;2022-10-14T01:09:34;14.20;99.90
30889;DHT22;51092;50.874;7.024;2022-10-14T01:10:42;14.20;99.90
30889;DHT22;51092;50.874;7.024;2022-10-14T01:11:52;14.20;99.90
30889;DHT22;51092;50.874;7.024;2022-10-14T01:13:08;14.20;99.90
30889;DHT22;51092;50.874;7.024;2022-10-14T01:14:18;14.20;99.90
30889;DHT22;51092;50.874;7.024;2022-10-14T01:15:30;14.20;99.90
30889;DHT22;51092;50.874;7.024;2022-10-14T01:16:40;14.20;99.90
30889;DHT22;51092;50.874;7.024;2022-10-14T01:17:53;14.20;99.90
30889;DHT22;51092;50.874;7.024;2022-10-14T01:19:06;14.30;99.90
30889;DHT22;51092;50.874;7.024;2022-10-14T01:20:38;14.30;99.90
30889;DHT22;51092;50.874;7.024;2022-10-14T01:21:44;14.20;99.90
30889;DHT22;51092;50.874;7.024;2022-10-14T01:22:59;14.20;99.90
30889;DHT22;51092;50.874;7.024;2022-10-14T01:24:41;14.20;99.90
30889;DHT22;51092;50.874;7.024;2022-10-14T01:25:54;14.20;99.90
30889;DHT22;51092;50.874;7.024;2022-10-14T01:27:14;14.20;99.90
30889;DHT22;51092;50.874;7.024;2022-10-14T01:28:25;14.10;99.90
30889;DHT22;51092;50.874;7.024;2022-10-14T01:29:46;14.10;99.90
30889;DHT22;51092;50.874;7.024;2022-10-14T01:30:58;14.10;99.90
30889;DHT22;51092;50.874;7.024;2022-10-14T01:32:05;14.00;99.90
30889;DHT22;51092;50.874;7.024;2022-10-14T01:33:11;14.10;99.90
30889;DHT22;51092;50.874;7.024;2022-10-14T01:34:20;14.10;99.90
30889;DHT22;51092;50.874;7.024;2022-10-14T01:35:32;14.10;99.90
30889;DHT22;51092;50.874;7.024;2022-10-14T01:36:43;14.10;99.90
30889;DHT22;51092;50.874;7.024;2022-10-14T01:37:48;14.00;99.90
30889;DHT22;51092;50.874;7.024;2022-10-14T01:38:57;14.10;99.90
30889;DHT22;51092;50.874;7.024;2022-10-14T01:40:07;14.10;99.90
30889;DHT22;51092;50.874;7.024;2022-10-14T01:41:16;14.10;99.90
30889;DHT22;51092;50.874;7.024;2022-10-14T01:42:24;14.10;99.90
30889;DHT22;51092;50.874;7.024;2022-10-14T01:43:29;14.10;99.90
30889;DHT22;51092;50.874;7.024;2022-10-14T01:44:34;14.20;99.90
30889;DHT22;51092;50.874;7.024;2022-10-14T01:45:40;14.20;99.90
30889;DHT22;51092;50.874;7.024;2022-10-14T01:46:47;14.20;99.90
30889;DHT22;51092;50.874;7.024;2022-10-14T01:47:52;14.20;99.90
30889;DHT22;51092;50.874;7.024;2022-10-14T01:48:59;14.20;99.90
30889;DHT22;51092;50.874;7.024;2022-10-14T01:50:03;14.20;99.90
30889;DHT22;51092;50.874;7.024;2022-10-14T01:51:11;14.20;99.90
30889;DHT22;51092;50.874;7.024;2022-10-14T01:52:17;14.10;99.90
30889;DHT22;51092;50.874;7.024;2022-10-14T01:53:24;14.20;99.90
30889;DHT22;51092;50.874;7.024;2022-10-14T01:54:31;14.10;99.90
30889;DHT22;51092;50.874;7.024;2022-10-14T01:55:38;14.10;99.90
30889;DHT22;51092;50.874;7.024;2022-10-14T01:56:43;14.10;99.90
30889;DHT22;51092;50.874;7.024;2022-10-14T01:57:49;14.00;99.90
30889;DHT22;51092;50.874;7.024;2022-10-14T01:58:52;14.00;99.90
30889;DHT22;51092;50.874;7.024;2022-10-14T01:59:56;14.00;99.90
30889;DHT22;51092;50.874;7.024;2022-10-14T02:01:02;14.00;99.90
30889;DHT22;51092;50.874;7.024;2022-10-14T02:02:05;14.10;99.90
30889;DHT22;51092;50.874;7.024;2022-10-14T02:03:08;14.10;99.90
30889;DHT22;51092;50.874;7.024;2022-10-14T02:04:14;14.00;99.90
30889;DHT22;51092;50.874;7.024;2022-10-14T02:05:19;14.10;99.90
30889;DHT22;51092;50.874;7.024;2022-10-14T02:06:26;14.10;99.90
30889;DHT22;51092;50.874;7.024;2022-10-14T02:07:34;14.10;99.90
30889;DHT22;51092;50.874;7.024;2022-10-14T02:08:53;14.10;99.90
30889;DHT22;51092;50.874;7.024;2022-10-14T02:10:04;14.10;99.90
30889;DHT22;51092;50.874;7.024;2022-10-14T02:11:11;14.10;99.90
30889;DHT22;51092;50.874;7.024;2022-10-14T02:12:25;14.10;99.90
30889;DHT22;51092;50.874;7.024;2022-10-14T02:13:51;14.10;99.90
30889;DHT22;51092;50.874;7.024;2022-10-14T02:15:05;14.20;99.90
30889;DHT22;51092;50.874;7.024;2022-10-14T02:16:16;14.20;99.90
30889;DHT22;51092;50.874;7.024;2022-10-14T02:17:27;14.10;99.90
30889;DHT22;51092;50.874;7.024;2022-10-14T02:18:34;14.20;99.90
30889;DHT22;51092;50.874;7.024;2022-10-14T02:19:43;14.20;99.90
30889;DHT22;51092;50.874;7.024;2022-10-14T02:20:53;14.30;99.90
30889;DHT22;51092;50.874;7.024;2022-10-14T02:22:00;14.30;99.90
30889;DHT22;51092;50.874;7.024;2022-10-14T02:23:08;14.30;99.90
30889;DHT22;51092;50.874;7.024;2022-10-14T02:24:19;14.30;99.90
30889;DHT22;51092;50.874;7.024;2022-10-14T02:25:27;14.30;99.90
30889;DHT22;51092;50.874;7.024;2022-10-14T02:26:31;14.30;99.90
30889;DHT22;51092;50.874;7.024;2022-10-14T02:27:34;14.30;99.90
30889;DHT22;51092;50.874;7.024;2022-10-14T02:28:38;14.30;99.90
30889;DHT22;51092;50.874;7.024;2022-10-14T02:29:43;14.30;99.90
30889;DHT22;51092;50.874;7.024;2022-10-14T02:30:49;14.30;99.90
30889;DHT22;51092;50.874;7.024;2022-10-14T02:31:55;14.30;99.90
30889;DHT22;51092;50.874;7.024;2022-10-14T02:32:59;14.30;99.90
30889;DHT22;51092;50.874;7.024;2022-10-14T02:34:04;14.40;99.90
30889;DHT22;51092;50.874;7.024;2022-10-14T02:35:10;14.30;99.90
30889;DHT22;51092;50.874;7.024;2022-10-14T02:36:17;14.30;99.90
30889;DHT22;51092;50.874;7.024;2022-10-14T02:37:21;14.30;99.90
30889;DHT22;51092;50.874;7.024;2022-10-14T02:38:24;14.20;99.90
30889;DHT22;51092;50.874;7.024;2022-10-14T02:39:28;14.20;99.90
30889;DHT22;51092;50.874;7.024;2022-10-14T02:40:35;14.30;99.90
30889;DHT22;51092;50.874;7.024;2022-10-14T02:41:37;14.30;99.90
30889;DHT22;51092;50.874;7.024;2022-10-14T02:42:40;14.30;99.90
30889;DHT22;51092;50.874;7.024;2022-10-14T02:43:43;14.30;99.90
30889;DHT22;51092;50.874;7.024;2022-10-14T02:44:52;14.30;99.90
30889;DHT22;51092;50.874;7.024;2022-10-14T02:45:56;14.30;99.90
30889;DHT22;51092;50.874;7.024;2022-10-14T02:47:01;14.30;99.90
30889;DHT22;51092;50.874;7.024;2022-10-14T02:48:03;14.30;99.90
30889;DHT22;51092;50.874;7.024;2022-10-14T02:49:06;14.30;99.90
30889;DHT22;51092;50.874;7.024;2022-10-14T02:50:08;14.30;99.90
30889;DHT22;51092;50.874;7.024;2022-10-14T02:51:11;14.30;99.90
30889;DHT22;51092;50.874;7.024;2022-10-14T02:52:12;14.30;99.90
30889;DHT22;51092;50.874;7.024;2022-10-14T02:53:15;14.30;99.90
30889;DHT22;51092;50.874;7.024;2022-10-14T02:54:17;14.40;99.90
30889;DHT22;51092;50.874;7.024;2022-10-14T02:55:20;14.40;99.90
30889;DHT22;51092;50.874;7.024;2022-10-14T02:56:21;14.30;99.90
30889;DHT22;51092;50.874;7.024;2022-10-14T02:57:23;14.30;99.90
30889;DHT22;51092;50.874;7.024;2022-10-14T02:58:25;14.30;99.90
30889;DHT22;51092;50.874;7.024;2022-10-14T02:59:27;14.30;99.90
30889;DHT22;51092;50.874;7.024;2022-10-14T03:00:29;14.30;99.90
30889;DHT22;51092;50.874;7.024;2022-10-14T03:01:31;14.30;99.90
30889;DHT22;51092;50.874;7.024;2022-10-14T03:02:33;14.30;99.90
30889;DHT22;51092;50.874;7.024;2022-10-14T03:03:35;14.30;99.90
30889;DHT22;51092;50.874;7.024;2022-10-14T03:04:36;14.20;99.90
30889;DHT22;51092;50.874;7.024;2022-10-14T03:05:39;14.30;99.90
30889;DHT22;51092;50.874;7.024;2022-10-14T03:06:40;14.30;99.90
30889;DHT22;51092;50.874;7.024;2022-10-14T03:07:43;14.30;99.90
30889;DHT22;51092;50.874;7.024;2022-10-14T03:08:44;14.30;99.90
30889;DHT22;51092;50.874;7.024;2022-10-14T03:09:46;14.30;99.90
30889;DHT22;51092;50.874;7.024;2022-10-14T03:10:48;14.20;99.90
30889;DHT22;51092;50.874;7.024;2022-10-14T03:11:51;14.30;99.90
30889;DHT22;51092;50.874;7.024;2022-10-14T03:12:53;14.30;99.90
30889;DHT22;51092;50.874;7.024;2022-10-14T03:13:55;14.30;99.90
30889;DHT22;51092;50.874;7.024;2022-10-14T03:14:57;14.30;99.90
30889;DHT22;51092;50.874;7.024;2022-10-14T03:15:59;14.40;99.90
30889;DHT22;51092;50.874;7.024;2022-10-14T03:17:01;14.40;99.90
30889;DHT22;51092;50.874;7.024;2022-10-14T03:18:04;14.40;99.90
30889;DHT22;51092;50.874;7.024;2022-10-14T03:19:06;14.40;99.90
30889;DHT22;51092;50.874;7.024;2022-10-14T03:20:09;14.30;99.90
30889;DHT22;51092;50.874;7.024;2022-10-14T03:21:11;14.30;99.90
30889;DHT22;51092;50.874;7.024;2022-10-14T03:22:13;14.30;99.90
30889;DHT22;51092;50.874;7.024;2022-10-14T03:23:15;14.30;99.90
30889;DHT22;51092;50.874;7.024;2022-10-14T03:24:17;14.30;99.90
30889;DHT22;51092;50.874;7.024;2022-10-14T03:25:19;14.40;99.90
30889;DHT22;51092;50.874;7.024;2022-10-14T03:26:21;14.40;99.90
30889;DHT22;51092;50.874;7.024;2022-10-14T03:27:24;14.40;99.90
30889;DHT22;51092;50.874;7.024;2022-10-14T03:28:26;14.40;99.90
30889;DHT22;51092;50.874;7.024;2022-10-14T03:29:27;14.40;99.90
30889;DHT22;51092;50.874;7.024;2022-10-14T03:30:30;14.40;99.90
30889;DHT22;51092;50.874;7.024;2022-10-14T03:31:31;14.40;99.90
30889;DHT22;51092;50.874;7.024;2022-10-14T03:32:34;14.40;99.90
30889;DHT22;51092;50.874;7.024;2022-10-14T03:33:37;14.30;99.90
30889;DHT22;51092;50.874;7.024;2022-10-14T03:34:39;14.30;99.90
30889;DHT22;51092;50.874;7.024;2022-10-14T03:35:41;14.30;99.90
30889;DHT22;51092;50.874;7.024;2022-10-14T03:36:43;14.30;99.90
30889;DHT22;51092;50.874;7.024;2022-10-14T03:37:46;14.30;99.90
30889;DHT22;51092;50.874;7.024;2022-10-14T03:38:47;14.40;99.90
30889;DHT22;51092;50.874;7.024;2022-10-14T03:39:49;14.30;99.90
30889;DHT22;51092;50.874;7.024;2022-10-14T03:40:51;14.30;99.90
30889;DHT22;51092;50.874;7.024;2022-10-14T03:41:53;14.30;99.90
30889;DHT22;51092;50.874;7.024;2022-10-14T03:42:57;14.30;99.90
30889;DHT22;51092;50.874;7.024;2022-10-14T03:43:59;14.20;99.90
30889;DHT22;51092;50.874;7.024;2022-10-14T03:45:01;14.20;99.90
30889;DHT22;51092;50.874;7.024;2022-10-14T03:46:04;14.20;99.90
30889;DHT22;51092;50.874;7.024;2022-10-14T03:47:05;14.20;99.90
30889;DHT22;51092;50.874;7.024;2022-10-14T03:48:08;14.20;99.90
30889;DHT22;51092;50.874;7.024;2022-10-14T03:49:11;14.20;99.90
30889;DHT22;51092;50.874;7.024;2022-10-14T03:50:14;14.20;99.90
30889;DHT22;51092;50.874;7.024;2022-10-14T03:51:15;14.20;99.90
30889;DHT22;51092;50.874;7.024;2022-10-14T03:52:18;14.30;99.90
30889;DHT22;51092;50.874;7.024;2022-10-14T03:53:19;14.30;99.90
30889;DHT22;51092;50.874;7.024;2022-10-14T03:54:22;14.30;99.90
30889;DHT22;51092;50.874;7.024;2022-10-14T03:55:23;14.40;99.90
30889;DHT22;51092;50.874;7.024;2022-10-14T03:56:26;14.30;99.90
30889;DHT22;51092;50.874;7.024;2022-10-14T03:57:27;14.30;99.90
30889;DHT22;51092;50.874;7.024;2022-10-14T03:58:30;14.30;99.90
30889;DHT22;51092;50.874;7.024;2022-10-14T03:59:31;14.30;99.90
30889;DHT22;51092;50.874;7.024;2022-10-14T04:00:33;14.30;99.90
30889;DHT22;51092;50.874;7.024;2022-10-14T04:01:35;14.30;99.90
30889;DHT22;51092;50.874;7.024;2022-10-14T04:02:38;14.40;99.90
30889;DHT22;51092;50.874;7.024;2022-10-14T04:03:39;14.40;99.90
30889;DHT22;51092;50.874;7.024;2022-10-14T04:04:44;14.30;99.90
30889;DHT22;51092;50.874;7.024;2022-10-14T04:05:45;14.40;99.90
30889;DHT22;51092;50.874;7.024;2022-10-14T04:06:48;14.40;99.90
30889;DHT22;51092;50.874;7.024;2022-10-14T04:07:49;14.40;99.90
30889;DHT22;51092;50.874;7.024;2022-10-14T04:08:52;14.40;99.90
30889;DHT22;51092;50.874;7.024;2022-10-14T04:09:53;14.30;99.90
30889;DHT22;51092;50.874;7.024;2022-10-14T04:10:56;14.20;99.90
30889;DHT22;51092;50.874;7.024;2022-10-14T04:11:58;14.20;99.90
30889;DHT22;51092;50.874;7.024;2022-10-14T04:13:01;14.30;99.90
30889;DHT22;51092;50.874;7.024;2022-10-14T04:14:02;14.20;99.90
30889;DHT22;51092;50.874;7.024;2022-10-14T04:15:06;14.30;99.90
30889;DHT22;51092;50.874;7.024;2022-10-14T04:16:10;14.20;99.90
30889;DHT22;51092;50.874;7.024;2022-10-14T04:17:13;14.30;99.90
30889;DHT22;51092;50.874;7.024;2022-10-14T04:18:15;14.30;99.90
30889;DHT22;51092;50.874;7.024;2022-10-14T04:19:18;14.30;99.90
30889;DHT22;51092;50.874;7.024;2022-10-14T04:20:20;14.30;99.90
30889;DHT22;51092;50.874;7.024;2022-10-14T04:21:23;14.40;99.90
30889;DHT22;51092;50.874;7.024;2022-10-14T04:22:25;14.40;99.90
30889;DHT22;51092;50.874;7.024;2022-10-14T04:23:27;14.40;99.90
30889;DHT22;51092;50.874;7.024;2022-10-14T04:24:29;14.40;99.90
30889;DHT22;51092;50.874;7.024;2022-10-14T04:25:31;14.40;99.90
30889;DHT22;51092;50.874;7.024;2022-10-14T04:26:34;14.40;99.90
30889;DHT22;51092;50.874;7.024;2022-10-14T04:27:39;14.40;99.90
30889;DHT22;51092;50.874;7.024;2022-10-14T04:28:40;14.40;99.90
30889;DHT22;51092;50.874;7.024;2022-10-14T04:29:43;14.50;99.90
30889;DHT22;51092;50.874;7.024;2022-10-14T04:30:47;14.40;99.90
30889;DHT22;51092;50.874;7.024;2022-10-14T04:31:50;14.40;99.90
30889;DHT22;51092;50.874;7.024;2022-10-14T04:32:51;14.40;99.90
30889;DHT22;51092;50.874;7.024;2022-10-14T04:33:54;14.50;99.90
30889;DHT22;51092;50.874;7.024;2022-10-14T04:34:55;14.50;99.90
30889;DHT22;51092;50.874;7.024;2022-10-14T04:36:00;14.50;99.90
30889;DHT22;51092;50.874;7.024;2022-10-14T04:37:02;14.50;99.90
30889;DHT22;51092;50.874;7.024;2022-10-14T04:38:05;14.60;99.90
30889;DHT22;51092;50.874;7.024;2022-10-14T04:39:06;14.50;99.90
30889;DHT22;51092;50.874;7.024;2022-10-14T04:40:09;14.50;99.90
30889;DHT22;51092;50.874;7.024;2022-10-14T04:41:11;14.60;99.90
30889;DHT22;51092;50.874;7.024;2022-10-14T04:42:13;14.60;99.90
30889;DHT22;51092;50.874;7.024;2022-10-14T04:43:15;14.60;99.90
30889;DHT22;51092;50.874;7.024;2022-10-14T04:44:17;14.70;99.90
30889;DHT22;51092;50.874;7.024;2022-10-14T04:45:19;14.60;99.90
30889;DHT22;51092;50.874;7.024;2022-10-14T04:46:21;14.70;99.90
30889;DHT22;51092;50.874;7.024;2022-10-14T04:47:23;14.60;99.90
30889;DHT22;51092;50.874;7.024;2022-10-14T04:48:25;14.60;99.90
30889;DHT22;51092;50.874;7.024;2022-10-14T04:49:27;14.70;99.90
30889;DHT22;51092;50.874;7.024;2022-10-14T04:50:29;14.60;99.90
30889;DHT22;51092;50.874;7.024;2022-10-14T04:51:32;14.60;99.90
30889;DHT22;51092;50.874;7.024;2022-10-14T04:52:34;14.70;99.90
30889;DHT22;51092;50.874;7.024;2022-10-14T04:53:36;14.60;99.90
30889;DHT22;51092;50.874;7.024;2022-10-14T04:54:38;14.60;99.90
30889;DHT22;51092;50.874;7.024;2022-10-14T04:55:40;14.60;99.90
30889;DHT22;51092;50.874;7.024;2022-10-14T04:56:42;14.60;99.90
30889;DHT22;51092;50.874;7.024;2022-10-14T04:57:43;14.60;99.90
30889;DHT22;51092;50.874;7.024;2022-10-14T04:58:48;14.70;99.90
30889;DHT22;51092;50.874;7.024;2022-10-14T04:59:50;14.70;99.90
30889;DHT22;51092;50.874;7.024;2022-10-14T05:00:53;14.70;99.90
30889;DHT22;51092;50.874;7.024;2022-10-14T05:01:54;14.60;99.90
30889;DHT22;51092;50.874;7.024;2022-10-14T05:02:57;14.70;99.90
30889;DHT22;51092;50.874;7.024;2022-10-14T05:03:59;14.60;99.90
30889;DHT22;51092;50.874;7.024;2022-10-14T05:05:02;14.60;99.90
30889;DHT22;51092;50.874;7.024;2022-10-14T05:06:04;14.50;99.90
30889;DHT22;51092;50.874;7.024;2022-10-14T05:07:08;14.50;99.90
30889;DHT22;51092;50.874;7.024;2022-10-14T05:08:09;14.50;99.90
30889;DHT22;51092;50.874;7.024;2022-10-14T05:09:12;14.50;99.90
30889;DHT22;51092;50.874;7.024;2022-10-14T05:10:13;14.50;99.90
30889;DHT22;51092;50.874;7.024;2022-10-14T05:11:15;14.50;99.90
30889;DHT22;51092;50.874;7.024;2022-10-14T05:12:17;14.40;99.90
30889;DHT22;51092;50.874;7.024;2022-10-14T05:13:19;14.50;99.90
30889;DHT22;51092;50.874;7.024;2022-10-14T05:14:21;14.50;99.90
30889;DHT22;51092;50.874;7.024;2022-10-14T05:15:23;14.50;99.90
30889;DHT22;51092;50.874;7.024;2022-10-14T05:16:25;14.50;99.90
30889;DHT22;51092;50.874;7.024;2022-10-14T05:17:28;14.50;99.90
30889;DHT22;51092;50.874;7.024;2022-10-14T05:18:29;14.50;99.90
30889;DHT22;51092;50.874;7.024;2022-10-14T05:19:32;14.50;99.90
30889;DHT22;51092;50.874;7.024;2022-10-14T05:20:34;14.50;99.90
30889;DHT22;51092;50.874;7.024;2022-10-14T05:21:38;14.50;99.90
30889;DHT22;51092;50.874;7.024;2022-10-14T05:22:42;14.50;99.90
30889;DHT22;51092;50.874;7.024;2022-10-14T05:23:45;14.50;99.90
30889;DHT22;51092;50.874;7.024;2022-10-14T05:24:47;14.40;99.90
30889;DHT22;51092;50.874;7.024;2022-10-14T05:25:49;14.40;99.90
30889;DHT22;51092;50.874;7.024;2022-10-14T05:26:51;14.40;99.90
30889;DHT22;51092;50.874;7.024;2022-10-14T05:27:54;14.30;99.90
30889;DHT22;51092;50.874;7.024;2022-10-14T05:28:55;14.30;99.90
30889;DHT22;51092;50.874;7.024;2022-10-14T05:29:58;14.30;99.90
30889;DHT22;51092;50.874;7.024;2022-10-14T05:31:00;14.30;99.90
30889;DHT22;51092;50.874;7.024;2022-10-14T05:32:02;14.20;99.90
30889;DHT22;51092;50.874;7.024;2022-10-14T05:33:04;14.20;99.90
30889;DHT22;51092;50.874;7.024;2022-10-14T05:34:06;14.20;99.90
30889;DHT22;51092;50.874;7.024;2022-10-14T05:35:08;14.10;99.90
30889;DHT22;51092;50.874;7.024;2022-10-14T05:36:10;14.10;99.90
30889;DHT22;51092;50.874;7.024;2022-10-14T05:37:12;14.20;99.90
30889;DHT22;51092;50.874;7.024;2022-10-14T05:38:16;14.20;99.90
30889;DHT22;51092;50.874;7.024;2022-10-14T05:39:17;14.10;99.90
30889;DHT22;51092;50.874;7.024;2022-10-14T05:40:20;14.10;99.90
30889;DHT22;51092;50.874;7.024;2022-10-14T05:41:21;14.10;99.90
30889;DHT22;51092;50.874;7.024;2022-10-14T05:42:24;14.10;99.90
30889;DHT22;51092;50.874;7.024;2022-10-14T05:43:25;14.00;99.90
30889;DHT22;51092;50.874;7.024;2022-10-14T05:44:28;14.00;99.90
30889;DHT22;51092;50.874;7.024;2022-10-14T05:45:29;14.00;99.90
30889;DHT22;51092;50.874;7.024;2022-10-14T05:46:31;14.00;99.90
30889;DHT22;51092;50.874;7.024;2022-10-14T05:47:33;14.10;99.90
30889;DHT22;51092;50.874;7.024;2022-10-14T05:48:35;14.10;99.90
30889;DHT22;51092;50.874;7.024;2022-10-14T05:49:37;14.10;99.90
30889;DHT22;51092;50.874;7.024;2022-10-14T05:50:40;14.10;99.90
30889;DHT22;51092;50.874;7.024;2022-10-14T05:51:42;14.10;99.90
30889;DHT22;51092;50.874;7.024;2022-10-14T05:52:44;14.10;99.90
30889;DHT22;51092;50.874;7.024;2022-10-14T05:53:48;14.10;99.90
30889;DHT22;51092;50.874;7.024;2022-10-14T05:54:50;14.10;99.90
30889;DHT22;51092;50.874;7.024;2022-10-14T05:55:53;14.20;99.90
30889;DHT22;51092;50.874;7.024;2022-10-14T05:57:00;14.20;99.90
30889;DHT22;51092;50.874;7.024;2022-10-14T05:58:03;14.30;99.90
30889;DHT22;51092;50.874;7.024;2022-10-14T05:59:04;14.30;99.90
30889;DHT22;51092;50.874;7.024;2022-10-14T06:00:08;14.30;99.90
30889;DHT22;51092;50.874;7.024;2022-10-14T06:01:10;14.40;99.90
30889;DHT22;51092;50.874;7.024;2022-10-14T06:02:12;14.40;99.90
30889;DHT22;51092;50.874;7.024;2022-10-14T06:03:14;14.40;99.90
30889;DHT22;51092;50.874;7.024;2022-10-14T06:04:19;14.50;99.90
30889;DHT22;51092;50.874;7.024;2022-10-14T06:05:20;14.40;99.90
30889;DHT22;51092;50.874;7.024;2022-10-14T06:06:23;14.40;99.90
30889;DHT22;51092;50.874;7.024;2022-10-14T06:07:24;14.40;99.90
30889;DHT22;51092;50.874;7.024;2022-10-14T06:08:27;14.50;99.90
30889;DHT22;51092;50.874;7.024;2022-10-14T06:09:30;14.40;99.90
30889;DHT22;51092;50.874;7.024;2022-10-14T06:10:34;14.40;99.90
30889;DHT22;51092;50.874;7.024;2022-10-14T06:11:35;14.30;99.90
30889;DHT22;51092;50.874;7.024;2022-10-14T06:12:37;14.30;99.90
30889;DHT22;51092;50.874;7.024;2022-10-14T06:13:39;14.40;99.90
30889;DHT22;51092;50.874;7.024;2022-10-14T06:14:42;14.40;99.90
30889;DHT22;51092;50.874;7.024;2022-10-14T06:15:43;14.40;99.90
30889;DHT22;51092;50.874;7.024;2022-10-14T06:16:48;14.50;99.90
30889;DHT22;51092;50.874;7.024;2022-10-14T06:17:49;14.40;99.90
30889;DHT22;51092;50.874;7.024;2022-10-14T06:18:52;14.40;99.90
30889;DHT22;51092;50.874;7.024;2022-10-14T06:19:53;14.50;99.90
30889;DHT22;51092;50.874;7.024;2022-10-14T06:20:56;14.50;99.90
30889;DHT22;51092;50.874;7.024;2022-10-14T06:21:58;14.40;99.90
30889;DHT22;51092;50.874;7.024;2022-10-14T06:23:00;14.40;99.90
30889;DHT22;51092;50.874;7.024;2022-10-14T06:24:02;14.50;99.90
30889;DHT22;51092;50.874;7.024;2022-10-14T06:25:07;14.50;99.90
30889;DHT22;51092;50.874;7.024;2022-10-14T06:26:09;14.60;99.90
30889;DHT22;51092;50.874;7.024;2022-10-14T06:27:12;14.60;99.90
30889;DHT22;51092;50.874;7.024;2022-10-14T06:28:14;14.50;99.90
30889;DHT22;51092;50.874;7.024;2022-10-14T06:29:16;14.50;99.90
30889;DHT22;51092;50.874;7.024;2022-10-14T06:30:18;14.50;99.90
30889;DHT22;51092;50.874;7.024;2022-10-14T06:31:20;14.50;99.90
30889;DHT22;51092;50.874;7.024;2022-10-14T06:32:23;14.50;99.90
30889;DHT22;51092;50.874;7.024;2022-10-14T06:33:24;14.70;99.90
30889;DHT22;51092;50.874;7.024;2022-10-14T06:34:29;14.60;99.90
30889;DHT22;51092;50.874;7.024;2022-10-14T06:35:31;14.70;99.90
30889;DHT22;51092;50.874;7.024;2022-10-14T06:36:33;14.70;99.90
30889;DHT22;51092;50.874;7.024;2022-10-14T06:37:37;14.60;99.90
30889;DHT22;51092;50.874;7.024;2022-10-14T06:38:39;14.60;99.90
30889;DHT22;51092;50.874;7.024;2022-10-14T06:39:40;14.60;99.90
30889;DHT22;51092;50.874;7.024;2022-10-14T06:40:49;14.50;99.90
30889;DHT22;51092;50.874;7.024;2022-10-14T06:41:50;14.50;99.90
30889;DHT22;51092;50.874;7.024;2022-10-14T06:42:53;14.60;99.90
30889;DHT22;51092;50.874;7.024;2022-10-14T06:43:54;14.50;99.90
30889;DHT22;51092;50.874;7.024;2022-10-14T06:44:57;14.50;99.90